createdAt,value
2018-06-24T00:01:16.109Z,20.80
2018-06-24T00:02:16.080Z,6.10
2018-06-24T00:03:15.934Z,6.20
2018-06-24T00:04:15.981Z,5.70
2018-06-24T00:05:15.796Z,6.60
2018-06-24T00:08:02.528Z,5.90
2018-06-24T00:09:01.946Z,5.90
2018-06-24T00:10:01.752Z,6.10
2018-06-24T00:11:02.314Z,6.00
2018-06-24T00:12:01.586Z,5.80
2018-06-24T00:13:01.572Z,5.80
2018-06-24T00:14:01.432Z,6.10
2018-06-24T00:15:01.492Z,5.90
2018-06-24T00:16:01.316Z,5.80
2018-06-24T00:17:01.325Z,6.00
2018-06-24T00:18:01.124Z,5.70
2018-06-24T00:19:01.135Z,5.70
2018-06-24T00:20:00.955Z,6.10
2018-06-24T00:21:00.940Z,5.90
2018-06-24T00:22:00.819Z,5.80
2018-06-24T00:23:00.825Z,5.80
2018-06-24T00:24:00.633Z,5.70
2018-06-24T00:25:00.624Z,5.50
2018-06-24T00:26:00.494Z,5.60
2018-06-24T00:27:00.432Z,5.90
2018-06-24T00:28:00.324Z,5.40
2018-06-24T00:29:00.341Z,5.90
2018-06-24T00:30:00.195Z,5.90
2018-06-24T00:31:00.153Z,5.90
2018-06-24T00:32:00.020Z,5.80
2018-06-24T00:32:59.958Z,5.50
2018-06-24T00:33:59.845Z,5.30
2018-06-24T00:34:59.856Z,5.90
2018-06-24T00:35:59.677Z,5.40
2018-06-24T00:36:59.702Z,5.60
2018-06-24T00:37:59.530Z,6.10
2018-06-24T00:38:59.480Z,6.10
2018-06-24T00:39:59.371Z,5.80
2018-06-24T00:40:59.407Z,5.40
2018-06-24T00:41:59.224Z,5.80
2018-06-24T00:42:59.215Z,5.70
2018-06-24T00:43:59.047Z,5.70
2018-06-24T00:44:59.009Z,5.50
2018-06-24T00:45:58.881Z,5.30
2018-06-24T00:48:40.958Z,5.40
2018-06-24T00:49:40.916Z,5.30
2018-06-24T00:50:40.748Z,5.70
2018-06-24T00:54:24.097Z,5.60
2018-06-24T00:55:44.861Z,5.40
2018-06-24T00:56:23.758Z,5.50
2018-06-24T00:57:23.817Z,6.50
2018-06-24T00:58:23.642Z,6.20
2018-06-24T00:59:23.574Z,5.80
2018-06-24T01:00:23.444Z,5.90
2018-06-24T01:01:23.383Z,5.90
2018-06-24T01:02:23.299Z,5.80
2018-06-24T01:03:23.310Z,6.00
2018-06-24T01:04:23.121Z,5.60
2018-06-24T01:06:47.924Z,6.20
2018-06-24T01:07:51.043Z,5.70
2018-06-24T01:08:47.775Z,6.10
2018-06-24T01:12:51.343Z,5.80
2018-06-24T01:13:48.371Z,5.70
2018-06-24T01:17:34.454Z,6.30
2018-06-24T01:18:34.299Z,6.80
2018-06-24T01:19:34.264Z,6.90
2018-06-24T01:20:34.098Z,6.40
2018-06-24T01:21:34.059Z,7.20
2018-06-24T01:22:33.935Z,7.00
2018-06-24T01:23:34.014Z,6.30
2018-06-24T01:24:33.785Z,6.40
2018-06-24T01:25:33.712Z,6.70
2018-06-24T01:26:33.633Z,6.90
2018-06-24T01:27:33.589Z,6.40
2018-06-24T01:28:33.491Z,7.20
2018-06-24T01:29:33.515Z,7.10
2018-06-24T01:30:33.313Z,6.50
2018-06-24T01:31:33.319Z,6.40
2018-06-24T01:32:33.152Z,6.30
2018-06-24T01:33:33.150Z,6.40
2018-06-24T01:34:32.999Z,6.30
2018-06-24T01:35:33.029Z,6.40
2018-06-24T01:36:32.907Z,6.50
2018-06-24T01:37:32.854Z,7.00
2018-06-24T01:38:32.688Z,7.10
2018-06-24T01:39:32.679Z,6.40
2018-06-24T01:40:32.515Z,6.20
2018-06-24T01:41:32.459Z,6.30
2018-06-24T01:42:32.344Z,6.80
2018-06-24T01:43:32.369Z,6.50
2018-06-24T01:44:32.223Z,6.20
2018-06-24T01:45:32.181Z,6.80
2018-06-24T01:46:32.032Z,6.20
2018-06-24T01:47:32.043Z,6.20
2018-06-24T01:48:31.870Z,6.50
2018-06-24T01:49:31.933Z,6.10
2018-06-24T01:50:31.714Z,6.00
2018-06-24T01:51:31.708Z,6.60
2018-06-24T01:52:31.547Z,6.00
2018-06-24T01:53:31.516Z,6.20
2018-06-24T01:54:31.422Z,6.40
2018-06-24T01:55:31.320Z,6.20
2018-06-24T01:56:31.246Z,5.70
2018-06-24T01:59:13.430Z,6.30
2018-06-24T02:00:13.463Z,5.90
2018-06-24T02:01:13.272Z,6.40
2018-06-24T02:02:13.241Z,6.80
2018-06-24T02:03:13.113Z,6.50
2018-06-24T02:04:13.153Z,6.50
2018-06-24T02:05:12.963Z,6.60
2018-06-24T02:06:12.961Z,6.50
2018-06-24T02:07:12.794Z,6.30
2018-06-24T02:08:12.770Z,6.40
2018-06-24T02:09:12.635Z,6.80
2018-06-24T02:10:12.623Z,6.50
2018-06-24T02:13:58.475Z,6.30
2018-06-24T02:14:58.373Z,6.90
2018-06-24T02:15:58.378Z,6.60
2018-06-24T02:16:58.197Z,6.90
2018-06-24T02:19:40.442Z,6.70
2018-06-24T02:20:40.438Z,6.30
2018-06-24T02:21:40.275Z,6.40
2018-06-24T02:22:40.306Z,6.70
2018-06-24T02:23:40.115Z,6.80
2018-06-24T02:24:40.050Z,6.80
2018-06-24T02:25:39.973Z,6.70
2018-06-24T02:28:21.939Z,7.20
2018-06-24T02:29:21.922Z,6.60
2018-06-24T02:30:21.812Z,6.90
2018-06-24T02:31:21.770Z,7.00
2018-06-24T02:32:21.634Z,6.90
2018-06-24T02:33:21.649Z,6.60
2018-06-24T02:34:21.478Z,7.20
2018-06-24T02:35:22.528Z,7.10
2018-06-24T02:36:21.310Z,7.10
2018-06-24T02:37:21.296Z,6.70
2018-06-24T02:38:21.148Z,7.20
2018-06-24T02:39:21.181Z,6.60
2018-06-24T02:40:20.999Z,6.60
2018-06-24T02:41:20.973Z,6.90
2018-06-24T02:42:20.845Z,6.80
2018-06-24T02:43:20.795Z,6.10
2018-06-24T02:44:20.663Z,6.80
2018-06-24T02:45:20.723Z,6.80
2018-06-24T02:46:20.525Z,7.30
2018-06-24T02:47:20.510Z,6.40
2018-06-24T02:48:20.348Z,6.40
2018-06-24T02:51:02.465Z,6.90
2018-06-24T02:52:02.472Z,6.40
2018-06-24T02:53:02.300Z,6.70
2018-06-24T02:54:02.332Z,6.50
2018-06-24T02:55:02.131Z,6.60
2018-06-24T02:57:43.967Z,6.00
2018-06-24T02:58:43.948Z,6.70
2018-06-24T02:59:43.780Z,6.60
2018-06-24T03:00:43.840Z,6.90
2018-06-24T03:01:43.640Z,6.70
2018-06-24T03:02:43.676Z,6.70
2018-06-24T03:03:43.471Z,6.50
2018-06-24T03:04:43.454Z,6.80
2018-06-24T03:07:07.979Z,6.50
2018-06-24T03:08:07.947Z,6.10
2018-06-24T03:09:07.789Z,6.10
2018-06-24T03:11:49.959Z,6.40
2018-06-24T03:12:50.092Z,6.40
2018-06-24T03:13:49.786Z,6.40
2018-06-24T03:14:49.761Z,6.30
2018-06-24T03:15:49.627Z,6.60
2018-06-24T03:16:49.676Z,6.30
2018-06-24T03:17:49.489Z,6.60
2018-06-24T03:18:49.494Z,6.40
2018-06-24T03:19:49.333Z,6.50
2018-06-24T03:20:49.303Z,6.60
2018-06-24T03:21:49.160Z,6.70
2018-06-24T03:22:49.130Z,6.90
2018-06-24T03:23:49.006Z,6.30
2018-06-24T03:24:49.055Z,6.40
2018-06-24T03:25:48.832Z,6.30
2018-06-24T03:26:48.819Z,6.30
2018-06-24T03:27:48.680Z,6.90
2018-06-24T03:28:48.645Z,6.70
2018-06-24T03:29:48.551Z,6.90
2018-06-24T03:30:48.543Z,7.00
2018-06-24T03:31:48.357Z,6.90
2018-06-24T03:34:30.465Z,6.80
2018-06-24T03:35:30.461Z,6.70
2018-06-24T03:36:30.298Z,7.00
2018-06-24T03:37:30.259Z,7.00
2018-06-24T03:38:30.138Z,6.70
2018-06-24T03:39:30.198Z,6.20
2018-06-24T03:40:29.996Z,7.10
2018-06-24T03:41:29.980Z,6.90
2018-06-24T03:42:29.823Z,6.40
2018-06-24T03:43:29.784Z,6.80
2018-06-24T03:44:29.687Z,6.20
2018-06-24T03:45:29.695Z,7.30
2018-06-24T03:46:29.502Z,6.30
2018-06-24T03:49:11.552Z,6.50
2018-06-24T03:50:11.499Z,7.00
2018-06-24T03:51:11.335Z,6.70
2018-06-24T03:52:11.323Z,6.80
2018-06-24T03:53:11.143Z,6.90
2018-06-24T03:54:11.150Z,7.30
2018-06-24T03:55:10.998Z,6.80
2018-06-24T03:56:11.289Z,6.60
2018-06-24T03:57:10.825Z,6.80
2018-06-24T03:59:52.984Z,7.40
2018-06-24T04:00:54.017Z,6.90
2018-06-24T04:01:52.805Z,7.10
2018-06-24T04:02:52.847Z,7.10
2018-06-24T04:03:52.651Z,7.60
2018-06-24T04:04:52.665Z,7.10
2018-06-24T04:05:52.514Z,6.70
2018-06-24T04:06:52.468Z,6.70
2018-06-24T04:07:52.320Z,6.20
2018-06-24T04:08:52.295Z,6.20
2018-06-24T04:09:52.158Z,6.70
2018-06-24T04:12:34.485Z,6.30
2018-06-24T04:13:34.490Z,6.10
2018-06-24T04:14:34.313Z,6.90
2018-06-24T04:15:34.352Z,6.40
2018-06-24T04:16:34.152Z,6.60
2018-06-24T04:17:34.255Z,6.00
2018-06-24T04:18:34.012Z,6.10
2018-06-24T04:21:15.973Z,6.30
2018-06-24T04:22:16.017Z,6.20
2018-06-24T04:23:15.827Z,6.40
2018-06-24T04:24:15.824Z,6.80
2018-06-24T04:25:15.651Z,6.10
2018-06-24T04:26:15.628Z,6.20
2018-06-24T04:27:15.485Z,6.20
2018-06-24T04:28:16.499Z,6.30
2018-06-24T04:29:15.322Z,6.00
2018-06-24T04:30:15.343Z,6.10
2018-06-24T04:31:15.181Z,6.40
2018-06-24T04:32:15.158Z,5.60
2018-06-24T04:33:15.025Z,6.00
2018-06-24T04:34:14.965Z,5.90
2018-06-24T04:35:14.856Z,6.00
2018-06-24T04:36:14.879Z,5.90
2018-06-24T04:37:14.692Z,5.70
2018-06-24T04:38:15.751Z,5.80
2018-06-24T04:39:14.530Z,5.60
2018-06-24T04:40:14.488Z,6.30
2018-06-24T04:41:14.374Z,5.80
2018-06-24T04:42:14.402Z,5.60
2018-06-24T04:43:14.244Z,5.50
2018-06-24T04:45:56.468Z,5.50
2018-06-24T04:46:56.519Z,5.90
2018-06-24T04:47:56.322Z,6.30
2018-06-24T04:48:56.364Z,5.90
2018-06-24T04:49:56.163Z,6.50
2018-06-24T04:52:37.992Z,5.20
2018-06-24T04:53:37.926Z,5.80
2018-06-24T04:54:37.832Z,5.70
2018-06-24T04:55:37.837Z,5.80
2018-06-24T04:56:37.668Z,5.80
2018-06-24T05:21:59.629Z,5.80
2018-06-24T05:22:59.669Z,5.50
2018-06-24T05:23:59.454Z,5.80
2018-06-24T05:24:59.449Z,6.50
2018-06-24T05:25:59.337Z,6.00
2018-06-24T05:26:59.448Z,6.50
2018-06-24T05:27:59.147Z,6.10
2018-06-24T05:28:59.153Z,6.30
2018-06-24T05:29:58.995Z,5.90
2018-06-24T05:30:59.009Z,5.70
2018-06-24T05:31:58.826Z,5.90
2018-06-24T05:32:58.796Z,6.40
2018-06-24T05:33:58.667Z,6.30
2018-06-24T05:34:58.720Z,6.50
2018-06-24T05:35:58.501Z,6.50
2018-06-24T05:36:58.486Z,5.90
2018-06-24T05:37:58.353Z,6.20
2018-06-24T05:38:58.295Z,6.30
2018-06-24T05:39:58.207Z,5.90
2018-06-24T05:40:58.204Z,6.10
2018-06-24T05:41:58.065Z,6.20
2018-06-24T05:42:58.011Z,6.20
2018-06-24T05:43:57.879Z,6.00
2018-06-24T05:44:57.828Z,5.70
2018-06-24T05:45:57.726Z,5.90
2018-06-24T05:46:57.735Z,6.00
2018-06-24T05:47:57.541Z,6.60
2018-06-24T05:48:57.560Z,5.80
2018-06-24T05:49:57.390Z,5.80
2018-06-24T05:50:58.413Z,5.90
2018-06-24T05:51:57.250Z,6.30
2018-06-24T05:52:57.299Z,5.90
2018-06-24T05:53:57.070Z,6.00
2018-06-24T05:54:57.065Z,6.30
2018-06-24T05:55:56.931Z,6.20
2018-06-24T05:56:56.906Z,5.90
2018-06-24T05:57:56.774Z,5.90
2018-06-24T05:58:56.797Z,6.00
2018-06-24T05:59:56.610Z,5.80
2018-06-24T06:02:38.578Z,5.90
2018-06-24T06:03:38.419Z,6.10
2018-06-24T06:04:38.329Z,6.20
2018-06-24T06:05:38.297Z,5.50
2018-06-24T06:06:38.210Z,5.50
2018-06-24T06:07:38.239Z,5.80
2018-06-24T06:08:38.017Z,5.50
2018-06-24T06:09:38.014Z,5.60
2018-06-24T06:10:37.872Z,5.20
2018-06-24T06:11:37.856Z,5.40
2018-06-24T06:12:37.708Z,5.60
2018-06-24T06:15:19.998Z,5.60
2018-06-24T06:16:20.039Z,5.40
2018-06-24T06:17:19.865Z,5.50
2018-06-24T06:18:19.855Z,5.30
2018-06-24T06:19:19.698Z,4.80
2018-06-24T06:20:19.654Z,5.20
2018-06-24T06:21:19.527Z,5.00
2018-06-24T06:22:19.508Z,5.10
2018-06-24T06:23:19.394Z,5.20
2018-06-24T06:24:19.380Z,4.80
2018-06-24T06:25:19.196Z,5.40
2018-06-24T06:26:19.143Z,4.90
2018-06-24T06:27:19.082Z,5.20
2018-06-24T06:28:20.082Z,4.90
2018-06-24T06:29:18.898Z,5.40
2018-06-24T06:30:18.937Z,4.90
2018-06-24T06:31:18.733Z,4.80
2018-06-24T06:32:18.716Z,4.80
2018-06-24T06:33:18.585Z,4.80
2018-06-24T06:34:18.567Z,4.70
2018-06-24T06:35:18.442Z,4.50
2018-06-24T06:36:18.439Z,4.30
2018-06-24T06:37:18.258Z,5.10
2018-06-24T06:38:19.305Z,5.00
2018-06-24T06:39:18.105Z,4.90
2018-06-24T06:40:18.167Z,5.00
2018-06-24T06:41:17.985Z,4.80
2018-06-24T06:44:00.011Z,5.00
2018-06-24T06:45:00.136Z,4.70
2018-06-24T06:45:59.883Z,4.20
2018-06-24T06:47:00.883Z,4.20
2018-06-24T06:47:59.729Z,4.50
2018-06-24T06:48:59.684Z,4.20
2018-06-24T06:49:59.535Z,4.10
2018-06-24T06:50:59.518Z,4.30
2018-06-24T06:51:59.386Z,4.30
2018-06-24T06:52:59.396Z,3.80
2018-06-24T06:53:59.260Z,3.80
2018-06-24T06:54:59.217Z,4.20
2018-06-24T06:55:59.071Z,3.60
2018-06-24T06:56:59.117Z,4.10
2018-06-24T06:57:58.914Z,4.00
2018-06-24T06:58:58.989Z,3.90
2018-06-24T06:59:58.822Z,3.90
2018-06-24T07:00:58.781Z,4.20
2018-06-24T07:01:58.622Z,3.60
2018-06-24T07:02:58.650Z,4.10
2018-06-24T07:03:58.493Z,4.00
2018-06-24T07:04:58.452Z,4.40
2018-06-24T07:08:06.525Z,5.00
2018-06-24T07:09:06.507Z,4.80
2018-06-24T07:10:06.376Z,5.00
2018-06-24T07:11:06.381Z,4.80
2018-06-24T07:12:06.197Z,5.80
2018-06-24T07:13:06.235Z,5.50
2018-06-24T07:14:06.096Z,5.10
2018-06-24T07:16:48.032Z,5.40
2018-06-24T07:17:48.000Z,5.80
2018-06-24T07:18:47.859Z,7.30
2018-06-24T07:19:47.832Z,7.00
2018-06-24T07:20:47.704Z,8.10
2018-06-24T07:21:47.725Z,7.40
2018-06-24T07:22:47.575Z,7.00
2018-06-24T07:23:47.620Z,6.80
2018-06-24T07:24:47.397Z,7.20
2018-06-24T07:25:47.329Z,6.40
2018-06-24T07:26:47.300Z,6.20
2018-06-24T07:27:47.315Z,6.40
2018-06-24T07:28:47.073Z,6.00
2018-06-24T07:29:47.052Z,5.20
2018-06-24T07:30:47.049Z,5.40
2018-06-24T07:31:46.977Z,5.10
2018-06-24T07:32:46.792Z,5.50
2018-06-24T07:33:46.951Z,4.80
2018-06-24T07:34:46.620Z,4.40
2018-06-24T07:35:46.587Z,4.80
2018-06-24T07:36:46.468Z,4.60
2018-06-24T07:37:46.480Z,5.00
2018-06-24T07:38:46.301Z,4.50
2018-06-24T07:39:46.327Z,4.50
2018-06-24T07:40:46.125Z,5.00
2018-06-24T07:41:46.109Z,4.50
2018-06-24T07:42:45.990Z,5.30
2018-06-24T07:43:46.017Z,5.20
2018-06-24T07:44:46.551Z,5.00
2018-06-24T07:45:45.796Z,4.70
2018-06-24T07:46:45.654Z,4.90
2018-06-24T07:47:45.630Z,5.10
2018-06-24T07:48:45.505Z,4.90
2018-06-24T07:49:45.581Z,5.50
2018-06-24T07:50:45.373Z,5.40
2018-06-24T07:51:45.277Z,4.70
2018-06-24T07:52:45.196Z,5.20
2018-06-24T07:53:45.107Z,5.50
2018-06-24T07:54:45.034Z,5.60
2018-06-24T07:55:44.987Z,5.00
2018-06-24T07:56:44.885Z,5.00
2018-06-24T07:57:44.793Z,5.40
2018-06-24T07:58:44.726Z,5.00
2018-06-24T07:59:44.728Z,5.10
2018-06-24T08:00:44.690Z,4.90
2018-06-24T08:01:44.506Z,5.40
2018-06-24T08:02:44.400Z,5.20
2018-06-24T08:05:26.526Z,5.40
2018-06-24T08:06:26.487Z,5.80
2018-06-24T08:07:26.367Z,5.40
2018-06-24T08:10:08.547Z,5.30
2018-06-24T08:11:08.500Z,5.60
2018-06-24T08:12:08.380Z,5.80
2018-06-24T08:13:08.323Z,5.10
2018-06-24T08:14:08.220Z,5.20
2018-06-24T08:15:08.173Z,5.40
2018-06-24T08:16:08.184Z,5.30
2018-06-24T08:17:08.022Z,5.50
2018-06-24T08:18:07.934Z,5.90
2018-06-24T08:19:07.842Z,5.20
2018-06-24T08:20:07.751Z,5.30
2018-06-24T08:21:07.706Z,5.00
2018-06-24T08:22:07.599Z,4.90
2018-06-24T08:23:07.546Z,4.90
2018-06-24T08:24:07.444Z,5.30
2018-06-24T08:25:07.372Z,4.60
2018-06-24T08:33:47.844Z,5.10
2018-06-24T08:34:47.748Z,5.20
2018-06-24T08:35:47.678Z,5.60
2018-06-24T08:38:30.576Z,5.10
2018-06-24T08:39:30.378Z,4.90
2018-06-24T08:40:30.305Z,5.40
2018-06-24T08:41:30.218Z,5.30
2018-06-24T08:42:30.148Z,5.70
2018-06-24T08:43:30.138Z,7.10
2018-06-24T08:44:30.014Z,7.50
2018-06-24T08:45:29.924Z,10.20
2018-06-24T08:46:29.943Z,8.20
2018-06-24T08:47:29.784Z,7.70
2018-06-24T08:48:29.699Z,6.60
2018-06-24T08:49:29.617Z,7.00
2018-06-24T08:50:29.532Z,6.50
2018-06-24T08:51:29.456Z,6.20
2018-06-24T08:52:29.455Z,6.00
2018-06-24T08:53:29.324Z,5.90
2018-06-24T08:54:29.288Z,6.00
2018-06-24T08:55:29.152Z,5.60
2018-06-24T08:56:29.171Z,5.40
2018-06-24T08:57:28.998Z,5.90
2018-06-24T08:58:28.999Z,5.70
2018-06-24T08:59:28.875Z,5.80
2018-06-24T09:00:28.947Z,5.90
2018-06-24T09:01:28.702Z,5.90
2018-06-24T09:02:28.720Z,6.00
2018-06-24T09:03:28.552Z,6.10
2018-06-24T09:04:28.510Z,6.30
2018-06-24T09:05:28.453Z,5.90
2018-06-24T09:06:28.432Z,5.90
2018-06-24T09:07:28.257Z,5.80
2018-06-24T09:08:28.264Z,5.80
2018-06-24T09:09:28.110Z,6.10
2018-06-24T09:10:28.069Z,5.70
2018-06-24T09:11:27.955Z,6.30
2018-06-24T09:12:29.904Z,6.30
2018-06-24T09:13:27.807Z,6.00
2018-06-24T09:14:27.772Z,5.80
2018-06-24T09:15:27.689Z,6.30
2018-06-24T09:16:27.671Z,6.10
2018-06-24T09:17:27.499Z,5.90
2018-06-24T09:18:27.482Z,5.90
2018-06-24T09:19:27.339Z,5.80
2018-06-24T09:20:27.360Z,6.40
2018-06-24T09:21:27.213Z,6.30
2018-06-24T09:22:27.203Z,5.70
2018-06-24T09:23:27.053Z,5.60
2018-06-24T09:24:27.012Z,5.40
2018-06-24T09:25:26.929Z,5.50
2018-06-24T09:26:26.928Z,5.30
2018-06-24T09:27:26.741Z,5.40
2018-06-24T09:28:26.742Z,5.40
2018-06-24T09:29:26.645Z,5.00
2018-06-24T09:30:27.644Z,5.00
2018-06-24T09:31:26.747Z,5.60
2018-06-24T09:32:26.860Z,6.30
2018-06-24T09:33:27.196Z,6.00
2018-06-24T09:34:26.467Z,6.00
2018-06-24T09:35:26.492Z,5.90
2018-06-24T09:36:26.760Z,6.50
2018-06-24T09:37:25.987Z,5.70
2018-06-24T09:38:25.986Z,5.50
2018-06-24T09:39:25.815Z,5.70
2018-06-24T09:40:25.803Z,5.90
2018-06-24T09:41:25.724Z,5.90
2018-06-24T09:42:25.704Z,5.40
2018-06-24T09:43:25.512Z,5.20
2018-06-24T09:44:25.535Z,5.30
2018-06-24T09:45:25.376Z,5.20
2018-06-24T09:46:25.317Z,4.80
2018-06-24T09:47:25.248Z,5.20
2018-06-24T09:48:25.241Z,4.90
2018-06-24T09:49:25.066Z,4.60
2018-06-24T09:50:25.037Z,4.80
2018-06-24T09:51:24.932Z,4.60
2018-06-24T09:52:24.891Z,4.80
2018-06-24T09:53:24.774Z,4.40
2018-06-24T09:54:24.706Z,4.50
2018-06-24T09:55:24.632Z,4.50
2018-06-24T09:56:24.578Z,4.00
2018-06-24T09:57:24.527Z,4.00
2018-06-24T09:58:24.411Z,4.60
2018-06-24T09:59:24.360Z,4.20
2018-06-24T10:00:24.274Z,4.40
2018-06-24T10:01:24.183Z,4.20
2018-06-24T10:02:24.278Z,4.10
2018-06-24T10:03:24.153Z,3.90
2018-06-24T10:04:24.008Z,4.00
2018-06-24T10:05:23.913Z,3.80
2018-06-24T10:06:23.924Z,3.70
2018-06-24T10:07:23.773Z,4.00
2018-06-24T10:08:23.795Z,3.40
2018-06-24T10:09:23.612Z,4.00
2018-06-24T10:10:23.652Z,4.00
2018-06-24T10:11:23.468Z,3.70
2018-06-24T10:12:23.456Z,3.70
2018-06-24T10:13:23.334Z,3.60
2018-06-24T10:14:23.421Z,4.20
2018-06-24T10:15:23.191Z,3.80
2018-06-24T10:16:23.176Z,4.10
2018-06-24T10:17:23.070Z,4.00
2018-06-24T10:18:24.011Z,4.20
2018-06-24T10:19:22.897Z,4.30
2018-06-24T10:20:22.891Z,4.10
2018-06-24T10:21:22.764Z,3.70
2018-06-24T10:22:22.700Z,3.80
2018-06-24T10:23:22.604Z,4.60
2018-06-24T10:24:22.670Z,3.70
2018-06-24T10:25:22.458Z,4.10
2018-06-24T10:26:22.423Z,3.80
2018-06-24T10:27:22.313Z,3.90
2018-06-24T10:28:22.377Z,3.70
2018-06-24T10:29:22.226Z,3.40
2018-06-24T10:30:22.146Z,3.40
2018-06-24T10:31:22.042Z,3.10
2018-06-24T10:32:22.051Z,3.40
2018-06-24T10:33:21.913Z,2.80
2018-06-24T10:34:21.868Z,3.30
2018-06-24T10:35:21.813Z,3.10
2018-06-24T10:36:21.768Z,3.10
2018-06-24T10:37:21.625Z,3.70
2018-06-24T10:38:21.690Z,3.40
2018-06-24T10:39:21.520Z,3.50
2018-06-24T10:40:21.481Z,3.20
2018-06-24T10:41:21.359Z,3.10
2018-06-24T10:42:21.392Z,2.90
2018-06-24T10:43:21.237Z,2.80
2018-06-24T10:44:21.245Z,2.90
2018-06-24T10:45:21.092Z,2.70
2018-06-24T10:46:21.127Z,2.80
2018-06-24T10:47:20.925Z,2.30
2018-06-24T10:48:21.084Z,2.40
2018-06-24T10:49:20.840Z,2.40
2018-06-24T10:50:20.846Z,2.50
2018-06-24T10:51:20.655Z,2.50
2018-06-24T10:52:20.658Z,2.10
2018-06-24T10:53:20.512Z,2.50
2018-06-24T10:54:20.571Z,2.20
2018-06-24T10:55:20.415Z,2.40
2018-06-24T10:56:20.405Z,2.50
2018-06-24T10:57:20.253Z,2.80
2018-06-24T10:58:20.273Z,2.50
2018-06-24T10:59:20.097Z,2.30
2018-06-24T11:00:20.131Z,2.60
2018-06-24T11:01:19.925Z,2.40
2018-06-24T11:02:19.884Z,2.50
2018-06-24T11:03:19.804Z,2.60
2018-06-24T11:04:19.796Z,2.60
2018-06-24T11:05:19.724Z,2.60
2018-06-24T11:06:19.605Z,2.40
2018-06-24T11:07:19.509Z,2.60
2018-06-24T11:08:19.441Z,2.80
2018-06-24T11:09:19.391Z,2.70
2018-06-24T11:10:19.310Z,2.30
2018-06-24T11:11:19.237Z,2.60
2018-06-24T11:12:19.162Z,2.60
2018-06-24T11:13:19.079Z,2.50
2018-06-24T11:14:19.017Z,2.50
2018-06-24T11:15:19.052Z,3.00
2018-06-24T11:16:19.001Z,2.60
2018-06-24T11:17:18.808Z,2.80
2018-06-24T11:18:18.845Z,2.40
2018-06-24T11:19:18.665Z,2.80
2018-06-24T11:20:18.682Z,2.80
2018-06-24T11:21:18.528Z,2.70
2018-06-24T11:22:18.486Z,2.60
2018-06-24T11:23:18.428Z,2.50
2018-06-24T11:24:18.405Z,2.40
2018-06-24T11:25:18.241Z,2.70
2018-06-24T11:26:18.240Z,2.60
2018-06-24T11:27:18.108Z,2.50
2018-06-24T11:28:18.039Z,2.50
2018-06-24T11:29:17.981Z,2.40
2018-06-24T11:30:17.978Z,2.50
2018-06-24T11:31:17.794Z,2.30
2018-06-24T11:32:17.863Z,2.60
2018-06-24T11:33:17.655Z,2.70
2018-06-24T11:34:17.639Z,2.50
2018-06-24T11:35:17.510Z,2.20
2018-06-24T11:36:17.558Z,2.50
2018-06-24T11:37:17.405Z,2.80
2018-06-24T11:38:17.309Z,2.40
2018-06-24T11:39:17.223Z,2.60
2018-06-24T11:40:17.271Z,2.20
2018-06-24T11:41:17.074Z,2.40
2018-06-24T11:42:17.121Z,2.60
2018-06-24T11:43:16.942Z,2.30
2018-06-24T11:44:16.993Z,2.10
2018-06-24T11:45:16.796Z,1.80
2018-06-24T11:46:16.795Z,2.20
2018-06-24T11:47:16.694Z,2.20
2018-06-24T11:48:16.671Z,2.40
2018-06-24T11:49:16.494Z,2.20
2018-06-24T11:50:16.519Z,2.50
2018-06-24T11:51:16.339Z,2.90
2018-06-24T11:52:16.356Z,2.80
2018-06-24T11:53:16.213Z,3.30
2018-06-24T11:54:16.246Z,3.30
2018-06-24T11:55:16.072Z,3.00
2018-06-24T11:56:16.142Z,3.10
2018-06-24T11:57:15.905Z,2.90
2018-06-24T11:58:15.897Z,2.70
2018-06-24T11:59:15.754Z,2.60
2018-06-24T12:00:15.777Z,2.80
2018-06-24T12:01:15.619Z,2.50
2018-06-24T12:02:15.573Z,3.00
2018-06-24T12:03:15.492Z,3.00
2018-06-24T12:04:15.560Z,2.90
2018-06-24T12:05:15.316Z,2.60
2018-06-24T12:06:15.300Z,2.80
2018-06-24T12:07:15.174Z,3.40
2018-06-24T12:08:15.249Z,3.40
2018-06-24T12:09:15.016Z,3.10
2018-06-24T12:10:15.035Z,3.10
2018-06-24T12:11:14.913Z,3.00
2018-06-24T12:12:14.870Z,3.30
2018-06-24T12:13:14.807Z,3.00
2018-06-24T12:14:14.736Z,2.80
2018-06-24T12:15:14.577Z,2.60
2018-06-24T12:16:14.575Z,2.60
2018-06-24T12:17:14.431Z,2.50
2018-06-24T12:18:14.475Z,2.50
2018-06-24T12:19:14.306Z,2.70
2018-06-24T12:20:14.262Z,2.70
2018-06-24T12:21:14.137Z,2.70
2018-06-24T12:22:14.174Z,3.00
2018-06-24T12:23:14.010Z,2.50
2018-06-24T12:24:14.020Z,2.60
2018-06-24T12:25:13.844Z,3.10
2018-06-24T12:26:13.794Z,2.90
2018-06-24T12:27:13.697Z,3.00
2018-06-24T12:28:13.707Z,2.80
2018-06-24T12:29:13.558Z,2.80
2018-06-24T12:30:13.517Z,2.80
2018-06-24T12:31:13.504Z,2.50
2018-06-24T12:32:13.429Z,2.70
2018-06-24T12:33:13.261Z,2.40
2018-06-24T12:34:13.267Z,2.70
2018-06-24T12:35:13.107Z,2.30
2018-06-24T12:36:13.141Z,2.50
2018-06-24T12:37:12.976Z,2.50
2018-06-24T12:38:12.944Z,2.50
2018-06-24T12:39:12.824Z,2.40
2018-06-24T12:40:12.786Z,2.40
2018-06-24T12:41:12.695Z,2.40
2018-06-24T12:42:12.661Z,2.50
2018-06-24T12:43:12.523Z,2.70
2018-06-24T12:44:12.474Z,2.60
2018-06-24T12:45:12.426Z,2.90
2018-06-24T12:46:12.383Z,2.70
2018-06-24T12:47:12.200Z,2.50
2018-06-24T12:48:12.194Z,2.50
2018-06-24T12:49:12.057Z,2.40
2018-06-24T12:50:12.050Z,2.60
2018-06-24T12:51:11.896Z,2.60
2018-06-24T12:52:11.914Z,2.40
2018-06-24T12:53:11.744Z,2.50
2018-06-24T12:54:11.722Z,3.10
2018-06-24T12:55:11.623Z,2.80
2018-06-24T12:56:11.625Z,2.90
2018-06-24T12:57:11.449Z,2.70
2018-06-24T12:58:11.525Z,2.60
2018-06-24T12:59:11.547Z,2.60
2018-06-24T13:00:11.870Z,2.60
2018-06-24T13:01:11.170Z,2.50
2018-06-24T13:02:11.174Z,2.60
2018-06-24T13:03:11.004Z,2.40
2018-06-24T13:04:10.969Z,2.50
2018-06-24T13:05:10.853Z,2.60
2018-06-24T13:06:10.805Z,2.30
2018-06-24T13:07:10.704Z,2.50
2018-06-24T13:08:10.866Z,2.80
2018-06-24T13:09:10.552Z,2.70
2018-06-24T13:10:10.504Z,2.90
2018-06-24T13:11:10.491Z,2.90
2018-06-24T13:12:10.379Z,3.10
2018-06-24T13:13:10.236Z,2.90
2018-06-24T13:14:10.268Z,2.60
2018-06-24T13:15:10.092Z,3.10
2018-06-24T13:16:10.178Z,3.10
2018-06-24T13:17:09.936Z,3.20
2018-06-24T13:18:09.858Z,3.10
2018-06-24T13:19:09.778Z,2.90
2018-06-24T13:20:09.708Z,2.80
2018-06-24T13:21:09.719Z,2.80
2018-06-24T13:22:09.655Z,2.60
2018-06-24T13:23:09.475Z,2.60
2018-06-24T13:24:09.475Z,3.00
2018-06-24T13:25:09.338Z,2.60
2018-06-24T13:26:09.319Z,2.70
2018-06-24T13:27:09.190Z,2.70
2018-06-24T13:28:09.187Z,3.40
2018-06-24T13:29:09.015Z,3.40
2018-06-24T13:30:08.990Z,4.80
2018-06-24T13:31:08.857Z,2.30
2018-06-24T13:32:08.967Z,3.10
2018-06-24T13:33:08.716Z,3.00
2018-06-24T13:34:08.706Z,2.90
2018-06-24T13:35:08.571Z,2.60
2018-06-24T13:36:08.536Z,2.80
2018-06-24T13:37:08.437Z,2.90
2018-06-24T13:38:08.429Z,2.60
2018-06-24T13:39:08.276Z,2.50
2018-06-24T13:40:08.237Z,3.00
2018-06-24T13:41:08.111Z,3.30
2018-06-24T13:42:08.193Z,2.80
2018-06-24T13:43:07.973Z,2.70
2018-06-24T13:44:07.964Z,2.90
2018-06-24T13:45:07.820Z,2.70
2018-06-24T13:46:07.762Z,2.80
2018-06-24T13:47:07.685Z,2.60
2018-06-24T13:48:07.683Z,2.50
2018-06-24T13:49:07.528Z,2.90
2018-06-24T13:50:07.491Z,2.60
2018-06-24T13:51:07.353Z,3.00
2018-06-24T13:52:07.348Z,3.00
2018-06-24T13:53:07.210Z,3.10
2018-06-24T13:54:07.203Z,3.20
2018-06-24T13:55:07.036Z,2.60
2018-06-24T13:56:07.027Z,2.90
2018-06-24T13:57:06.905Z,3.00
2018-06-24T13:58:07.008Z,3.50
2018-06-24T13:59:06.744Z,3.10
2018-06-24T14:00:06.741Z,2.70
2018-06-24T14:01:06.580Z,2.60
2018-06-24T14:02:06.577Z,2.60
2018-06-24T14:03:06.469Z,2.50
2018-06-24T14:04:06.578Z,2.60
2018-06-24T14:05:06.280Z,2.60
2018-06-24T14:06:06.315Z,3.70
2018-06-24T14:07:06.137Z,2.70
2018-06-24T14:08:06.260Z,2.70
2018-06-24T14:09:05.991Z,2.80
2018-06-24T14:10:05.987Z,2.80
2018-06-24T14:11:05.815Z,2.80
2018-06-24T14:12:05.794Z,2.80
2018-06-24T14:13:05.668Z,2.60
2018-06-24T14:14:05.765Z,2.60
2018-06-24T14:15:05.527Z,3.10
2018-06-24T14:16:05.526Z,2.90
2018-06-24T14:17:05.355Z,2.90
2018-06-24T14:18:05.357Z,3.50
2018-06-24T14:19:05.201Z,3.00
2018-06-24T14:20:05.258Z,3.10
2018-06-24T14:21:05.053Z,3.00
2018-06-24T14:22:05.034Z,2.70
2018-06-24T14:23:04.916Z,3.10
2018-06-24T14:24:04.944Z,3.20
2018-06-24T14:25:04.787Z,2.70
2018-06-24T14:26:04.766Z,2.70
2018-06-24T14:27:04.594Z,2.60
2018-06-24T14:28:04.555Z,2.50
2018-06-24T14:29:04.455Z,2.70
2018-06-24T14:30:04.521Z,2.40
2018-06-24T14:31:04.280Z,2.80
2018-06-24T14:32:04.294Z,2.70
2018-06-24T14:33:04.165Z,2.60
2018-06-24T14:34:04.102Z,2.40
2018-06-24T14:35:03.992Z,2.20
2018-06-24T14:36:03.996Z,2.60
2018-06-24T14:37:03.835Z,2.70
2018-06-24T14:38:03.810Z,2.50
2018-06-24T14:39:03.669Z,2.80
2018-06-24T14:40:03.661Z,2.50
2018-06-24T14:41:03.547Z,2.50
2018-06-24T14:42:03.534Z,2.60
2018-06-24T14:43:03.392Z,2.50
2018-06-24T14:44:03.451Z,2.70